Saint Clair, Ohio
Current Conditions -  °F | °C
As of 3:53 AM on Tuesday 21 Oct 2014 (Local Time) from KHAO Reporting Station
Clear Clear  
Wind Chill: 46°   Ceiling: Unl
Heat Index: 48°   Visibility: 8mi
Dew Point: 47°   Wind: 5mph
Humidity: 96%   Direction: 300°WNW
Pressure: 29.94"   Gusts: NA
Location:  39.4247°N, 84.5012°W
Report Text: KHAO 210753Z AUTO 30004KT 8SM CLR 09/08 A2994 RMK AO2 SLP138 T00890083
Loading
Personal Weather Stations






























Interactive Weather Map
Tropical Storm Tracking
New forecast layout! Learn more

10-Day Weather Forecast

Advertisements
Track Severe Weather on mobile